createdAt,value
2018-07-13T00:00:37.342Z,19.72
2018-07-13T00:03:03.486Z,19.74
2018-07-13T00:05:29.516Z,19.65
2018-07-13T00:07:55.531Z,19.55
2018-07-13T00:10:21.556Z,19.57
2018-07-13T00:12:47.607Z,19.71
2018-07-13T00:15:13.628Z,19.73
2018-07-13T00:17:39.637Z,19.75
2018-07-13T00:20:05.662Z,19.73
2018-07-13T00:22:31.692Z,19.68
2018-07-13T00:24:57.669Z,19.62
2018-07-13T00:27:23.669Z,19.66
2018-07-13T00:29:49.680Z,19.69
2018-07-13T00:32:15.787Z,19.67
2018-07-13T00:34:41.799Z,19.61
2018-07-13T00:37:07.815Z,19.58
2018-07-13T00:39:33.851Z,19.62
2018-07-13T00:41:59.859Z,19.60
2018-07-13T00:44:25.865Z,19.58
2018-07-13T00:46:51.914Z,19.54
2018-07-13T00:49:17.937Z,19.58
2018-07-13T00:51:43.981Z,19.61
2018-07-13T00:54:09.983Z,19.56
2018-07-13T00:56:35.969Z,19.54
2018-07-13T00:59:01.964Z,19.56
2018-07-13T01:01:27.997Z,19.58
2018-07-13T01:03:54.014Z,19.49
2018-07-13T01:06:20.040Z,19.52
2018-07-13T01:08:46.071Z,19.53
2018-07-13T01:11:12.071Z,19.53
2018-07-13T01:13:38.079Z,19.50
2018-07-13T01:16:04.076Z,19.51
2018-07-13T01:18:30.122Z,19.59
2018-07-13T01:20:56.172Z,19.56
2018-07-13T01:23:22.169Z,19.55
2018-07-13T01:25:48.222Z,19.51
2018-07-13T01:28:14.245Z,19.46
2018-07-13T01:30:40.249Z,19.49
2018-07-13T01:33:06.230Z,19.41
2018-07-13T01:35:32.256Z,19.46
2018-07-13T01:37:58.272Z,19.49
2018-07-13T01:40:24.316Z,19.43
2018-07-13T01:42:50.304Z,19.46
2018-07-13T01:45:16.312Z,19.46
2018-07-13T01:47:42.316Z,19.42
2018-07-13T01:50:08.353Z,19.39
2018-07-13T01:52:34.367Z,19.40
2018-07-13T01:55:00.385Z,19.44
2018-07-13T01:57:26.418Z,19.34
2018-07-13T01:59:52.448Z,19.29
2018-07-13T02:02:18.454Z,19.29
2018-07-13T02:04:44.467Z,19.28
2018-07-13T02:07:10.477Z,19.33
2018-07-13T02:09:36.502Z,19.33
2018-07-13T02:12:02.507Z,19.26
2018-07-13T02:14:28.554Z,19.29
2018-07-13T02:16:54.604Z,19.25
2018-07-13T02:19:20.601Z,19.24
2018-07-13T02:21:46.587Z,19.24
2018-07-13T02:24:12.642Z,19.24
2018-07-13T02:26:38.680Z,19.24
2018-07-13T02:29:04.714Z,19.23
2018-07-13T02:31:30.733Z,19.21
2018-07-13T02:33:56.831Z,19.21
2018-07-13T02:36:22.848Z,19.18
2018-07-13T02:38:48.849Z,19.16
2018-07-13T02:41:14.878Z,19.16
2018-07-13T02:43:40.896Z,19.08
2018-07-13T02:46:06.922Z,19.04
2018-07-13T02:48:32.944Z,19.06
2018-07-13T02:50:58.960Z,19.07
2018-07-13T02:53:24.998Z,19.15
2018-07-13T02:55:51.045Z,19.14
2018-07-13T02:58:17.117Z,19.11
2018-07-13T03:00:43.154Z,19.06
2018-07-13T03:03:09.184Z,19.08
2018-07-13T03:05:35.218Z,19.04
2018-07-13T03:08:01.246Z,19.10
2018-07-13T03:10:27.349Z,19.04
2018-07-13T03:12:53.353Z,18.96
2018-07-13T03:15:19.376Z,18.91
2018-07-13T03:17:45.400Z,18.81
2018-07-13T03:20:11.433Z,18.95
2018-07-13T03:22:37.449Z,18.98
2018-07-13T03:25:03.497Z,18.92
2018-07-13T03:27:29.532Z,18.79
2018-07-13T03:29:55.538Z,18.86
2018-07-13T03:32:21.537Z,19.03
2018-07-13T03:34:47.569Z,19.03
2018-07-13T03:37:13.585Z,19.14
2018-07-13T03:39:39.639Z,19.13
2018-07-13T03:42:05.659Z,19.10
2018-07-13T03:44:31.688Z,19.09
2018-07-13T03:46:57.696Z,19.11
2018-07-13T03:49:23.705Z,19.11
2018-07-13T03:51:49.713Z,19.12
2018-07-13T03:54:15.822Z,18.98
2018-07-13T03:56:41.839Z,19.07
2018-07-13T03:59:07.871Z,19.13
2018-07-13T04:01:33.883Z,19.26
2018-07-13T04:03:59.900Z,19.22
2018-07-13T04:06:25.926Z,19.36
2018-07-13T04:08:51.940Z,19.48
2018-07-13T04:11:17.974Z,19.40
2018-07-13T04:13:43.979Z,19.36
2018-07-13T04:16:10.059Z,19.47
2018-07-13T04:18:36.087Z,19.52
2018-07-13T04:21:02.109Z,19.41
2018-07-13T04:23:28.116Z,19.42
2018-07-13T04:25:54.128Z,19.38
2018-07-13T04:28:20.160Z,19.40
2018-07-13T04:30:46.204Z,19.27
2018-07-13T04:33:12.236Z,19.33
2018-07-13T04:35:38.261Z,19.49
2018-07-13T04:38:04.277Z,19.62
2018-07-13T04:40:30.460Z,19.49
2018-07-13T04:42:56.474Z,19.50
2018-07-13T04:45:22.508Z,19.49
2018-07-13T04:47:48.544Z,19.55
2018-07-13T04:50:14.630Z,19.55
2018-07-13T04:52:40.633Z,19.56
2018-07-13T04:55:06.658Z,19.39
2018-07-13T04:57:32.685Z,19.45
2018-07-13T04:59:58.701Z,19.53
2018-07-13T05:02:24.701Z,19.60
2018-07-13T05:04:50.726Z,19.64
2018-07-13T05:07:16.765Z,19.67
2018-07-13T05:09:42.788Z,19.61
2018-07-13T05:12:08.824Z,19.55
2018-07-13T05:14:34.850Z,19.66
2018-07-13T05:17:00.890Z,19.67
2018-07-13T05:19:26.902Z,19.69
2018-07-13T05:21:52.948Z,19.59
2018-07-13T05:24:18.969Z,19.57
2018-07-13T05:26:44.973Z,19.75
2018-07-13T05:29:11.013Z,19.76
2018-07-13T05:31:37.039Z,19.76
2018-07-13T05:34:03.110Z,19.87
2018-07-13T05:36:29.184Z,19.96
2018-07-13T05:38:55.183Z,19.78
2018-07-13T05:41:21.218Z,19.85
2018-07-13T05:43:47.226Z,20.04
2018-07-13T05:46:13.276Z,20.18
2018-07-13T05:48:39.295Z,20.21
2018-07-13T05:51:05.338Z,20.28
2018-07-13T05:53:31.349Z,20.42
2018-07-13T05:55:57.353Z,20.42
2018-07-13T05:58:23.396Z,20.57
2018-07-13T06:00:49.404Z,20.54
2018-07-13T06:03:15.417Z,20.60
2018-07-13T06:05:41.466Z,20.87
2018-07-13T06:08:07.490Z,21.34
2018-07-13T06:10:33.492Z,21.70
2018-07-13T06:12:59.541Z,22.03
2018-07-13T06:15:25.537Z,21.63
2018-07-13T06:17:51.563Z,21.59
2018-07-13T06:20:17.607Z,21.45
2018-07-13T06:22:43.631Z,21.29
2018-07-13T06:25:09.663Z,21.04
2018-07-13T06:27:35.692Z,21.10
2018-07-13T06:30:01.680Z,21.00
2018-07-13T06:32:27.755Z,21.05
2018-07-13T06:34:53.881Z,21.28
2018-07-13T06:37:20.069Z,21.59
2018-07-13T06:39:46.165Z,22.07
2018-07-13T06:42:12.290Z,22.10
2018-07-13T06:44:38.343Z,22.55
2018-07-13T06:47:04.371Z,22.63
2018-07-13T06:49:30.513Z,22.42
2018-07-13T06:51:56.561Z,22.64
2018-07-13T06:54:22.577Z,22.44
2018-07-13T06:56:48.640Z,22.55
2018-07-13T06:59:14.616Z,22.46
2018-07-13T07:01:40.641Z,22.30
2018-07-13T07:04:06.657Z,22.22
2018-07-13T07:06:32.680Z,22.75
2018-07-13T07:08:58.747Z,23.35
2018-07-13T07:11:24.834Z,23.95
2018-07-13T07:13:50.832Z,24.41
2018-07-13T07:16:16.836Z,23.58
2018-07-13T07:18:42.861Z,23.40
2018-07-13T07:21:08.853Z,23.70
2018-07-13T07:23:34.891Z,24.24
2018-07-13T07:26:00.897Z,24.73
2018-07-13T07:28:26.922Z,24.98
2018-07-13T07:30:52.943Z,25.03
2018-07-13T07:33:18.999Z,25.25
2018-07-13T07:35:45.077Z,25.21
2018-07-13T07:38:11.124Z,25.37
2018-07-13T07:40:37.136Z,24.83
2018-07-13T07:43:03.158Z,25.24
2018-07-13T07:45:29.198Z,25.53
2018-07-13T07:47:55.261Z,25.52
2018-07-13T07:50:21.277Z,25.43
2018-07-13T07:52:47.298Z,25.58
2018-07-13T07:55:13.307Z,25.35
2018-07-13T07:57:39.483Z,25.24
2018-07-13T08:00:05.356Z,25.28
2018-07-13T08:02:31.516Z,25.29
2018-07-13T08:04:57.550Z,24.86
2018-07-13T08:07:23.555Z,25.12
2018-07-13T08:09:49.577Z,24.92
2018-07-13T08:12:15.597Z,24.94
2018-07-13T08:14:41.690Z,24.81
2018-07-13T08:17:07.674Z,24.86
2018-07-13T08:19:33.696Z,24.79
2018-07-13T08:21:59.750Z,24.71
2018-07-13T08:24:26.805Z,24.63
2018-07-13T08:26:52.834Z,24.62
2018-07-13T08:29:18.876Z,24.39
2018-07-13T08:31:44.874Z,24.30
2018-07-13T08:34:10.888Z,24.10
2018-07-13T08:36:36.841Z,24.23
2018-07-13T08:39:02.823Z,24.16
2018-07-13T08:41:28.784Z,24.05
2018-07-13T08:43:54.766Z,23.85
2018-07-13T08:46:20.714Z,23.68
2018-07-13T08:48:47.641Z,23.55
2018-07-13T08:51:13.620Z,23.56
2018-07-13T08:53:39.615Z,23.52
2018-07-13T08:56:05.560Z,23.46
2018-07-13T08:58:31.534Z,23.59
2018-07-13T09:00:57.508Z,23.52
2018-07-13T09:03:23.572Z,23.60
2018-07-13T09:05:49.590Z,23.57
2018-07-13T09:08:15.519Z,23.55
2018-07-13T09:10:41.507Z,23.39
2018-07-13T09:13:07.546Z,23.39
2018-07-13T09:15:33.612Z,23.37
2018-07-13T09:18:00.545Z,23.48
2018-07-13T09:20:26.500Z,23.33
2018-07-13T09:22:52.427Z,23.33
2018-07-13T09:25:18.391Z,23.47
2018-07-13T09:27:44.366Z,23.24
2018-07-13T09:30:10.316Z,23.25
2018-07-13T09:32:36.337Z,23.19
2018-07-13T09:35:02.298Z,23.11
2018-07-13T09:37:28.300Z,22.99
2018-07-13T09:39:54.286Z,23.07
2018-07-13T09:42:20.242Z,23.18
2018-07-13T09:44:46.237Z,23.02
2018-07-13T09:47:12.198Z,23.01
2018-07-13T09:49:38.197Z,23.09
2018-07-13T09:52:04.153Z,23.08
2018-07-13T09:54:30.139Z,23.12
2018-07-13T09:56:56.108Z,23.27
2018-07-13T09:59:22.092Z,23.34
2018-07-13T10:01:48.081Z,23.08
2018-07-13T10:04:14.062Z,23.17
2018-07-13T10:06:40.063Z,23.08
2018-07-13T10:09:06.025Z,23.06
2018-07-13T10:11:32.061Z,23.13
2018-07-13T10:13:58.038Z,23.09
2018-07-13T10:16:24.016Z,23.08
2018-07-13T10:18:50.361Z,23.02
2018-07-13T10:21:16.355Z,23.09
2018-07-13T10:23:42.318Z,23.02
2018-07-13T10:26:08.297Z,23.16
2018-07-13T10:28:34.300Z,23.33
2018-07-13T10:31:00.316Z,23.16
2018-07-13T10:33:26.293Z,23.14
2018-07-13T10:35:52.271Z,23.07
2018-07-13T10:38:18.256Z,23.30
2018-07-13T10:40:44.241Z,23.33
2018-07-13T10:43:10.274Z,23.45
2018-07-13T10:45:36.267Z,23.35
2018-07-13T10:48:02.226Z,23.12
2018-07-13T10:50:28.206Z,23.09
2018-07-13T10:52:54.204Z,23.13
2018-07-13T10:55:20.161Z,23.19
2018-07-13T10:57:46.128Z,23.06
2018-07-13T11:00:12.095Z,23.01
2018-07-13T11:02:38.107Z,23.04
2018-07-13T11:05:04.060Z,23.22
2018-07-13T11:07:30.005Z,23.22
2018-07-13T11:09:55.952Z,23.05
2018-07-13T11:12:21.901Z,23.11
2018-07-13T11:14:47.841Z,23.10
2018-07-13T11:17:13.798Z,23.19
2018-07-13T11:19:39.762Z,23.12
2018-07-13T11:22:05.712Z,23.15
2018-07-13T11:24:31.685Z,23.12
2018-07-13T11:26:57.681Z,23.21
2018-07-13T11:29:23.651Z,23.20
2018-07-13T11:31:49.623Z,23.17
2018-07-13T11:34:15.592Z,23.12
2018-07-13T11:36:41.579Z,23.29
2018-07-13T11:39:08.194Z,23.20
2018-07-13T11:41:34.162Z,23.22
2018-07-13T11:44:00.255Z,23.18
2018-07-13T11:46:26.313Z,23.18
2018-07-13T11:48:52.388Z,23.28
2018-07-13T11:51:18.362Z,23.31
2018-07-13T11:53:44.313Z,23.35
2018-07-13T11:56:10.314Z,23.22
2018-07-13T11:58:36.297Z,23.12
2018-07-13T12:01:02.281Z,23.18
2018-07-13T12:03:28.288Z,23.20
2018-07-13T12:05:54.284Z,23.22
2018-07-13T12:08:20.272Z,23.36
2018-07-13T12:10:46.260Z,23.33
2018-07-13T12:13:12.279Z,23.29
2018-07-13T12:15:38.239Z,23.17
2018-07-13T12:18:04.203Z,23.26
2018-07-13T12:20:30.152Z,23.03
2018-07-13T12:22:56.124Z,22.94
2018-07-13T12:25:22.097Z,22.91
2018-07-13T12:27:48.033Z,22.88
2018-07-13T12:30:14.012Z,22.84
2018-07-13T12:32:39.989Z,22.81
2018-07-13T12:35:05.966Z,22.84
2018-07-13T12:37:31.903Z,22.82
2018-07-13T12:39:57.943Z,22.72
2018-07-13T12:42:23.804Z,22.73
2018-07-13T12:44:49.753Z,22.76
2018-07-13T12:47:15.717Z,22.72
2018-07-13T12:49:41.692Z,22.77
2018-07-13T12:52:07.668Z,22.74
2018-07-13T12:54:33.668Z,22.71
2018-07-13T12:56:59.636Z,22.71
2018-07-13T12:59:25.658Z,22.67
2018-07-13T13:01:51.565Z,22.64
2018-07-13T13:04:17.537Z,22.65
2018-07-13T13:06:43.495Z,22.64
2018-07-13T13:09:09.457Z,22.64
2018-07-13T13:11:35.397Z,22.67
2018-07-13T13:14:01.457Z,22.67
2018-07-13T13:16:27.412Z,22.62
2018-07-13T13:18:53.429Z,22.59
2018-07-13T13:21:19.381Z,22.67
2018-07-13T13:23:45.365Z,22.67
2018-07-13T13:26:11.342Z,22.60
2018-07-13T13:28:37.304Z,22.56
2018-07-13T13:31:03.237Z,22.52
2018-07-13T13:33:29.243Z,22.53
2018-07-13T13:35:55.212Z,22.31
2018-07-13T13:38:21.154Z,22.52
2018-07-13T13:40:47.091Z,22.44
2018-07-13T13:43:13.052Z,22.51
2018-07-13T13:45:38.975Z,22.40
2018-07-13T13:48:04.936Z,22.45
2018-07-13T13:50:30.885Z,22.44
2018-07-13T13:52:56.849Z,22.45
2018-07-13T13:55:22.794Z,22.42
2018-07-13T13:57:48.732Z,22.43
2018-07-13T14:00:14.690Z,22.45
2018-07-13T14:02:40.675Z,22.96
2018-07-13T14:05:06.653Z,22.83
2018-07-13T14:07:32.607Z,22.85
2018-07-13T14:09:58.591Z,22.97
2018-07-13T14:12:24.589Z,22.86
2018-07-13T14:14:50.547Z,22.83
2018-07-13T14:17:16.571Z,22.92
2018-07-13T14:19:42.537Z,22.92
2018-07-13T14:22:08.473Z,22.88
2018-07-13T14:24:34.547Z,22.81
2018-07-13T14:27:00.514Z,22.81
2018-07-13T14:29:26.460Z,22.92
2018-07-13T14:31:52.505Z,22.97
2018-07-13T14:34:18.466Z,22.96
2018-07-13T14:36:44.431Z,22.95
2018-07-13T14:39:10.393Z,22.91
2018-07-13T14:41:36.369Z,23.12
2018-07-13T14:44:02.319Z,23.31
2018-07-13T14:46:28.278Z,23.28
2018-07-13T14:48:54.217Z,23.03
2018-07-13T14:51:20.295Z,22.99
2018-07-13T14:53:46.247Z,22.90
2018-07-13T14:56:12.234Z,23.03
2018-07-13T14:58:38.191Z,22.99
2018-07-13T15:01:04.147Z,22.94
2018-07-13T15:03:30.107Z,23.11
2018-07-13T15:05:56.162Z,23.02
2018-07-13T15:08:22.140Z,22.94
2018-07-13T15:10:48.108Z,23.03
2018-07-13T15:13:14.071Z,23.15
2018-07-13T15:15:40.026Z,23.06
2018-07-13T15:18:06.001Z,23.01
2018-07-13T15:20:31.973Z,22.88
2018-07-13T15:22:57.917Z,22.84
2018-07-13T15:25:23.874Z,23.00
2018-07-13T15:27:49.928Z,22.98
2018-07-13T15:30:15.951Z,23.00
2018-07-13T15:32:41.902Z,22.90
2018-07-13T15:35:07.849Z,22.88
2018-07-13T15:37:33.832Z,22.90
2018-07-13T15:39:59.764Z,22.91
2018-07-13T15:42:25.782Z,22.88
2018-07-13T15:44:51.759Z,22.85
2018-07-13T15:47:17.833Z,22.95
2018-07-13T15:49:43.786Z,22.91
2018-07-13T15:52:09.749Z,22.95
2018-07-13T15:54:35.768Z,23.01
2018-07-13T15:57:01.711Z,23.03
2018-07-13T15:59:27.656Z,22.85
2018-07-13T16:01:53.599Z,22.98
2018-07-13T16:04:19.676Z,23.04
2018-07-13T16:06:45.699Z,22.97
2018-07-13T16:09:11.738Z,23.21
2018-07-13T16:11:37.701Z,23.00
2018-07-13T16:14:03.694Z,22.95
2018-07-13T16:16:29.779Z,22.97
2018-07-13T16:18:55.714Z,22.95
2018-07-13T16:21:21.708Z,22.95
2018-07-13T16:23:47.658Z,22.94
2018-07-13T16:26:13.629Z,22.92
2018-07-13T16:28:39.684Z,22.90
2018-07-13T16:31:05.611Z,22.84
2018-07-13T16:33:31.550Z,22.85
2018-07-13T16:35:57.502Z,22.87
2018-07-13T16:38:23.446Z,22.83
2018-07-13T16:40:49.437Z,22.77
2018-07-13T16:43:15.372Z,22.82
2018-07-13T16:45:41.331Z,22.95
2018-07-13T16:48:07.311Z,22.94
2018-07-13T16:50:33.311Z,22.88
2018-07-13T16:52:59.292Z,22.80
2018-07-13T16:55:25.239Z,22.94
2018-07-13T16:57:51.198Z,22.91
2018-07-13T17:00:17.179Z,22.88
2018-07-13T17:02:43.134Z,22.87
2018-07-13T17:05:09.106Z,22.95
2018-07-13T17:07:35.085Z,22.95
2018-07-13T17:10:01.076Z,22.87
2018-07-13T17:12:27.018Z,22.88
2018-07-13T17:14:53.059Z,22.98
2018-07-13T17:17:19.001Z,22.90
2018-07-13T17:19:44.944Z,23.00
2018-07-13T17:22:10.885Z,22.91
2018-07-13T17:24:36.828Z,23.02
2018-07-13T17:27:02.783Z,23.01
2018-07-13T17:29:28.757Z,22.96
2018-07-13T17:31:54.725Z,23.04
2018-07-13T17:34:20.672Z,23.01
2018-07-13T17:36:46.619Z,22.91
2018-07-13T17:39:12.576Z,22.96
2018-07-13T17:41:38.549Z,23.10
2018-07-13T17:44:04.531Z,22.94
2018-07-13T17:46:30.525Z,23.05
2018-07-13T17:48:56.529Z,22.96
2018-07-13T17:51:22.473Z,23.01
2018-07-13T17:53:48.417Z,22.99
2018-07-13T17:56:14.371Z,23.02
2018-07-13T17:58:40.320Z,22.96
2018-07-13T18:01:06.319Z,23.04
2018-07-13T18:03:32.267Z,23.03
2018-07-13T18:05:58.265Z,23.03
2018-07-13T18:08:24.214Z,23.05
2018-07-13T18:10:50.176Z,23.09
2018-07-13T18:13:16.185Z,23.05
2018-07-13T18:15:42.132Z,23.01
2018-07-13T18:18:08.091Z,22.99
2018-07-13T18:20:34.104Z,23.00
2018-07-13T18:23:00.129Z,22.99
2018-07-13T18:25:26.045Z,22.98
2018-07-13T18:27:51.996Z,22.98
2018-07-13T18:30:17.950Z,22.95
2018-07-13T18:32:44.066Z,23.03
2018-07-13T18:35:10.052Z,23.03
2018-07-13T18:37:36.020Z,23.00
2018-07-13T18:40:02.010Z,22.93
2018-07-13T18:42:27.954Z,22.93
2018-07-13T18:44:53.919Z,22.93
2018-07-13T18:47:19.869Z,22.91
2018-07-13T18:49:45.860Z,22.87
2018-07-13T18:52:11.853Z,22.89
2018-07-13T18:54:37.798Z,22.92
2018-07-13T18:57:03.748Z,22.88
2018-07-13T18:59:29.731Z,22.86
2018-07-13T19:01:55.707Z,22.85
2018-07-13T19:04:21.709Z,22.86
2018-07-13T19:06:47.696Z,22.86
2018-07-13T19:09:13.663Z,22.86
2018-07-13T19:11:39.598Z,22.84
2018-07-13T19:14:05.599Z,22.86
2018-07-13T19:16:31.610Z,22.86
2018-07-13T19:18:57.593Z,22.84
2018-07-13T19:21:23.653Z,22.82
2018-07-13T19:23:49.667Z,22.85
2018-07-13T19:26:15.629Z,22.84
2018-07-13T19:28:41.607Z,22.84
2018-07-13T19:31:07.700Z,23.39
2018-07-13T19:33:34.357Z,23.34
2018-07-13T19:36:00.272Z,23.25
2018-07-13T19:38:26.270Z,23.35
2018-07-13T19:40:52.234Z,23.40
2018-07-13T19:43:18.213Z,23.53
2018-07-13T19:45:44.156Z,23.52
2018-07-13T19:48:10.242Z,23.81
2018-07-13T19:50:36.251Z,23.85
2018-07-13T19:53:02.249Z,23.66
2018-07-13T19:55:28.225Z,23.59
2018-07-13T19:57:54.216Z,23.39
2018-07-13T20:00:20.220Z,23.19
2018-07-13T20:02:46.244Z,23.06
2018-07-13T20:05:12.238Z,23.34
2018-07-13T20:07:38.213Z,23.11
2018-07-13T20:10:04.177Z,22.96
2018-07-13T20:12:30.215Z,22.99
2018-07-13T20:14:56.192Z,22.93
2018-07-13T20:17:22.472Z,22.64
2018-07-13T20:19:48.515Z,22.52
2018-07-13T20:22:14.551Z,22.39
2018-07-13T20:24:40.516Z,22.44
2018-07-13T20:27:06.531Z,22.40
2018-07-13T20:29:32.522Z,22.34
2018-07-13T20:31:58.527Z,22.31
2018-07-13T20:34:24.497Z,22.23
2018-07-13T20:36:50.518Z,22.21
2018-07-13T20:39:16.530Z,22.18
2018-07-13T20:41:42.534Z,22.21
2018-07-13T20:44:08.527Z,22.25
2018-07-13T20:46:34.499Z,22.19
2018-07-13T20:49:00.480Z,22.26
2018-07-13T20:51:26.433Z,22.21
2018-07-13T20:53:52.436Z,22.66
2018-07-13T20:56:18.569Z,22.94
2018-07-13T20:58:44.631Z,22.95
2018-07-13T21:01:10.649Z,23.10
2018-07-13T21:03:36.651Z,22.97
2018-07-13T21:06:02.748Z,22.93
2018-07-13T21:08:32.625Z,22.97
2018-07-13T21:10:58.604Z,22.95
2018-07-13T21:13:24.602Z,23.01
2018-07-13T21:15:50.598Z,23.08
2018-07-13T21:18:16.587Z,22.92
2018-07-13T21:20:42.602Z,22.84
2018-07-13T21:23:08.602Z,22.58
2018-07-13T21:25:34.577Z,22.60
2018-07-13T21:28:00.576Z,22.93
2018-07-13T21:30:26.575Z,22.75
2018-07-13T21:32:52.559Z,22.37
2018-07-13T21:35:18.557Z,22.26
2018-07-13T21:37:44.559Z,22.32
2018-07-13T21:40:10.528Z,22.38
2018-07-13T21:42:36.528Z,22.13
2018-07-13T21:45:02.534Z,21.98
2018-07-13T21:47:28.537Z,21.97
2018-07-13T21:49:54.501Z,21.97
2018-07-13T21:52:20.497Z,22.07
2018-07-13T21:54:46.450Z,21.93
2018-07-13T21:57:12.489Z,21.78
2018-07-13T21:59:38.479Z,21.63
2018-07-13T22:02:04.449Z,21.58
2018-07-13T22:04:30.437Z,21.72
2018-07-13T22:06:56.383Z,21.71
2018-07-13T22:09:22.349Z,21.83
2018-07-13T22:11:48.890Z,21.82
2018-07-13T22:14:14.862Z,21.67
2018-07-13T22:16:40.877Z,21.62
2018-07-13T22:19:06.981Z,21.32
2018-07-13T22:21:33.033Z,21.35
2018-07-13T22:23:59.032Z,21.44
2018-07-13T22:26:25.122Z,21.42
2018-07-13T22:28:51.045Z,21.43
2018-07-13T22:31:17.088Z,21.30
2018-07-13T22:33:43.115Z,21.04
2018-07-13T22:36:09.144Z,21.22
2018-07-13T22:38:35.175Z,21.53
2018-07-13T22:41:01.136Z,21.39
2018-07-13T22:43:27.148Z,21.43
2018-07-13T22:45:53.235Z,21.52
2018-07-13T22:48:19.225Z,21.48
2018-07-13T22:50:45.281Z,21.14
2018-07-13T22:53:11.245Z,20.89
2018-07-13T22:55:37.489Z,21.01
2018-07-13T22:58:03.476Z,20.83
2018-07-13T23:00:31.550Z,20.72
2018-07-13T23:02:57.562Z,20.71
2018-07-13T23:05:23.523Z,20.46
2018-07-13T23:07:49.510Z,20.35
2018-07-13T23:10:15.494Z,20.26
2018-07-13T23:12:41.451Z,20.29
2018-07-13T23:15:07.466Z,20.16
2018-07-13T23:17:33.453Z,20.35
2018-07-13T23:19:59.472Z,20.54
2018-07-13T23:22:25.492Z,20.57
2018-07-13T23:24:51.459Z,20.55
2018-07-13T23:27:17.545Z,20.39
2018-07-13T23:29:43.510Z,19.93
2018-07-13T23:32:09.534Z,19.95
2018-07-13T23:34:35.578Z,19.90
2018-07-13T23:37:01.568Z,19.76
2018-07-13T23:39:27.633Z,19.90
2018-07-13T23:41:53.605Z,19.84
2018-07-13T23:44:19.590Z,19.69
2018-07-13T23:46:45.748Z,19.51
2018-07-13T23:49:11.743Z,19.60
2018-07-13T23:51:37.880Z,19.81
2018-07-13T23:54:04.084Z,19.88
2018-07-13T23:56:30.107Z,19.79
2018-07-13T23:58:56.245Z,19.84
